sensor_id;sensor_type;location;lat;lon;timestamp;pressure;altitude;pressure_sealevel;temperature;humidity
41467;BME280;72625;53.700;19.958;2024-03-25T00:03:59;98609.83;;;5.33;82.25
41467;BME280;72625;53.700;19.958;2024-03-25T00:09:01;98603.16;;;5.42;82.25
41467;BME280;72625;53.700;19.958;2024-03-25T00:14:06;98598.13;;;5.44;82.30
41467;BME280;72625;53.700;19.958;2024-03-25T00:19:08;98590.61;;;5.43;82.22
41467;BME280;72625;53.700;19.958;2024-03-25T00:24:10;98587.94;;;5.43;82.29
41467;BME280;72625;53.700;19.958;2024-03-25T00:29:12;98588.93;;;5.41;82.36
41467;BME280;72625;53.700;19.958;2024-03-25T00:34:15;98588.72;;;5.37;82.35
41467;BME280;72625;53.700;19.958;2024-03-25T00:39:17;98592.19;;;5.32;82.41
41467;BME280;72625;53.700;19.958;2024-03-25T00:44:19;98586.58;;;5.23;82.28
41467;BME280;72625;53.700;19.958;2024-03-25T00:49:22;98578.94;;;5.15;82.45
41467;BME280;72625;53.700;19.958;2024-03-25T00:54:24;98575.29;;;5.11;82.58
41467;BME280;72625;53.700;19.958;2024-03-25T00:59:26;98575.86;;;5.12;82.73
41467;BME280;72625;53.700;19.958;2024-03-25T01:04:28;98578.83;;;5.09;82.81
41467;BME280;72625;53.700;19.958;2024-03-25T01:09:30;98575.52;;;5.04;82.70
41467;BME280;72625;53.700;19.958;2024-03-25T01:14:33;98573.91;;;4.97;82.73
41467;BME280;72625;53.700;19.958;2024-03-25T01:19:35;98572.80;;;4.89;82.95
41467;BME280;72625;53.700;19.958;2024-03-25T01:24:37;98574.02;;;4.90;83.11
41467;BME280;72625;53.700;19.958;2024-03-25T01:29:39;98569.27;;;4.84;83.42
41467;BME280;72625;53.700;19.958;2024-03-25T01:34:41;98566.86;;;4.85;83.41
41467;BME280;72625;53.700;19.958;2024-03-25T01:39:43;98566.60;;;4.87;83.58
41467;BME280;72625;53.700;19.958;2024-03-25T01:44:45;98571.28;;;4.90;83.66
41467;BME280;72625;53.700;19.958;2024-03-25T01:49:48;98570.32;;;4.89;83.69
41467;BME280;72625;53.700;19.958;2024-03-25T01:54:55;98573.86;;;5.00;83.77
41467;BME280;72625;53.700;19.958;2024-03-25T01:59:58;98575.07;;;5.03;83.89
41467;BME280;72625;53.700;19.958;2024-03-25T02:05:01;98575.36;;;5.07;84.07
41467;BME280;72625;53.700;19.958;2024-03-25T02:10:04;98571.23;;;5.11;84.26
41467;BME280;72625;53.700;19.958;2024-03-25T02:15:06;98568.67;;;5.17;84.52
41467;BME280;72625;53.700;19.958;2024-03-25T02:20:10;98568.23;;;5.25;84.49
41467;BME280;72625;53.700;19.958;2024-03-25T02:25:14;98567.17;;;5.27;84.31
41467;BME280;72625;53.700;19.958;2024-03-25T02:30:16;98567.52;;;5.25;84.61
41467;BME280;72625;53.700;19.958;2024-03-25T02:35:18;98567.99;;;5.26;84.60
41467;BME280;72625;53.700;19.958;2024-03-25T02:40:20;98570.85;;;5.22;84.45
41467;BME280;72625;53.700;19.958;2024-03-25T02:45:24;98572.74;;;5.20;84.64
41467;BME280;72625;53.700;19.958;2024-03-25T02:50:26;98572.98;;;5.17;84.51
41467;BME280;72625;53.700;19.958;2024-03-25T02:55:28;98571.55;;;5.22;84.74
41467;BME280;72625;53.700;19.958;2024-03-25T03:00:30;98571.14;;;5.24;84.69
41467;BME280;72625;53.700;19.958;2024-03-25T03:05:32;98574.65;;;5.31;84.95
41467;BME280;72625;53.700;19.958;2024-03-25T03:10:34;98574.84;;;5.38;84.85
41467;BME280;72625;53.700;19.958;2024-03-25T03:15:36;98576.46;;;5.40;84.64
41467;BME280;72625;53.700;19.958;2024-03-25T03:20:38;98574.40;;;5.36;84.77
41467;BME280;72625;53.700;19.958;2024-03-25T03:25:40;98578.21;;;5.31;84.96
41467;BME280;72625;53.700;19.958;2024-03-25T03:30:43;98579.43;;;5.22;85.07
41467;BME280;72625;53.700;19.958;2024-03-25T03:35:45;98581.54;;;5.18;85.36
41467;BME280;72625;53.700;19.958;2024-03-25T03:41:01;98587.11;;;5.20;85.39
41467;BME280;72625;53.700;19.958;2024-03-25T03:46:03;98582.09;;;5.16;85.42
41467;BME280;72625;53.700;19.958;2024-03-25T03:51:06;98586.29;;;5.21;85.34
41467;BME280;72625;53.700;19.958;2024-03-25T03:56:08;98587.51;;;5.14;85.36
41467;BME280;72625;53.700;19.958;2024-03-25T04:01:15;98592.67;;;5.10;85.59
41467;BME280;72625;53.700;19.958;2024-03-25T04:06:18;98594.57;;;5.03;85.76
41467;BME280;72625;53.700;19.958;2024-03-25T04:11:20;98598.85;;;4.97;85.85
41467;BME280;72625;53.700;19.958;2024-03-25T04:16:22;98599.14;;;4.91;85.95
41467;BME280;72625;53.700;19.958;2024-03-25T04:21:24;98596.25;;;4.87;86.29
41467;BME280;72625;53.700;19.958;2024-03-25T04:26:26;98596.86;;;4.82;86.41
41467;BME280;72625;53.700;19.958;2024-03-25T04:31:28;98604.15;;;4.83;86.71
41467;BME280;72625;53.700;19.958;2024-03-25T04:36:30;98606.54;;;4.85;86.73
41467;BME280;72625;53.700;19.958;2024-03-25T04:41:32;98606.36;;;4.84;86.70
41467;BME280;72625;53.700;19.958;2024-03-25T04:46:34;98614.73;;;4.88;86.84
41467;BME280;72625;53.700;19.958;2024-03-25T04:51:36;98622.67;;;4.84;86.52
41467;BME280;72625;53.700;19.958;2024-03-25T04:56:39;98622.81;;;4.79;86.80
41467;BME280;72625;53.700;19.958;2024-03-25T05:01:41;98628.52;;;4.78;86.83
41467;BME280;72625;53.700;19.958;2024-03-25T05:06:42;98627.38;;;4.75;87.08
41467;BME280;72625;53.700;19.958;2024-03-25T05:11:44;98628.67;;;4.76;87.16
41467;BME280;72625;53.700;19.958;2024-03-25T05:16:47;98626.59;;;4.81;87.00
41467;BME280;72625;53.700;19.958;2024-03-25T05:21:50;98626.24;;;4.84;86.84
41467;BME280;72625;53.700;19.958;2024-03-25T05:26:52;98629.66;;;4.86;87.04
41467;BME280;72625;53.700;19.958;2024-03-25T05:32:01;98632.53;;;4.92;87.05
41467;BME280;72625;53.700;19.958;2024-03-25T05:37:04;98642.13;;;5.02;87.09
41467;BME280;72625;53.700;19.958;2024-03-25T05:42:07;98649.59;;;5.15;86.79
41467;BME280;72625;53.700;19.958;2024-03-25T05:47:09;98658.17;;;5.41;87.11
41467;BME280;72625;53.700;19.958;2024-03-25T05:52:11;98665.60;;;5.80;86.79
41467;BME280;72625;53.700;19.958;2024-03-25T05:57:13;98668.61;;;5.99;86.61
41467;BME280;72625;53.700;19.958;2024-03-25T06:02:15;98674.90;;;6.18;86.39
41467;BME280;72625;53.700;19.958;2024-03-25T06:07:17;98679.00;;;6.48;86.70
41467;BME280;72625;53.700;19.958;2024-03-25T06:12:19;98679.45;;;6.72;86.32
41467;BME280;72625;53.700;19.958;2024-03-25T06:17:21;98686.33;;;6.79;86.19
41467;BME280;72625;53.700;19.958;2024-03-25T06:22:23;98691.80;;;6.85;85.70
41467;BME280;72625;53.700;19.958;2024-03-25T06:27:25;98697.34;;;6.93;86.02
41467;BME280;72625;53.700;19.958;2024-03-25T06:32:28;98700.65;;;7.11;85.95
41467;BME280;72625;53.700;19.958;2024-03-25T06:37:48;98703.34;;;7.17;85.83
41467;BME280;72625;53.700;19.958;2024-03-25T06:42:50;98708.84;;;7.29;86.08
41467;BME280;72625;53.700;19.958;2024-03-25T06:47:52;98714.69;;;7.38;85.61
41467;BME280;72625;53.700;19.958;2024-03-25T06:52:54;98719.46;;;7.38;85.56
41467;BME280;72625;53.700;19.958;2024-03-25T06:57:57;98721.33;;;7.47;85.91
41467;BME280;72625;53.700;19.958;2024-03-25T07:02:59;98729.36;;;7.51;86.19
41467;BME280;72625;53.700;19.958;2024-03-25T07:08:02;98731.42;;;7.42;85.66
41467;BME280;72625;53.700;19.958;2024-03-25T07:13:04;98733.10;;;7.59;85.72
41467;BME280;72625;53.700;19.958;2024-03-25T07:18:07;98736.95;;;7.87;85.66
41467;BME280;72625;53.700;19.958;2024-03-25T07:23:09;98742.55;;;8.21;85.50
41467;BME280;72625;53.700;19.958;2024-03-25T07:28:11;98744.76;;;8.49;85.48
41467;BME280;72625;53.700;19.958;2024-03-25T07:33:13;98750.64;;;8.69;85.17
41467;BME280;72625;53.700;19.958;2024-03-25T07:38:15;98757.11;;;8.96;85.92
41467;BME280;72625;53.700;19.958;2024-03-25T07:43:17;98765.63;;;9.11;85.67
41467;BME280;72625;53.700;19.958;2024-03-25T07:48:19;98766.17;;;9.18;84.34
41467;BME280;72625;53.700;19.958;2024-03-25T07:53:21;98771.57;;;8.88;83.15
41467;BME280;72625;53.700;19.958;2024-03-25T07:58:23;98775.54;;;8.75;84.94
41467;BME280;72625;53.700;19.958;2024-03-25T08:03:26;98781.84;;;8.81;85.64
41467;BME280;72625;53.700;19.958;2024-03-25T08:08:29;98785.23;;;8.65;84.19
41467;BME280;72625;53.700;19.958;2024-03-25T08:13:31;98790.59;;;8.62;84.84
41467;BME280;72625;53.700;19.958;2024-03-25T08:18:33;98792.75;;;8.54;83.42
41467;BME280;72625;53.700;19.958;2024-03-25T08:23:36;98791.89;;;8.40;83.77
41467;BME280;72625;53.700;19.958;2024-03-25T08:28:38;98792.95;;;8.40;83.93
41467;BME280;72625;53.700;19.958;2024-03-25T08:33:40;98792.96;;;8.51;83.18
41467;BME280;72625;53.700;19.958;2024-03-25T08:38:42;98792.73;;;8.97;83.97
41467;BME280;72625;53.700;19.958;2024-03-25T08:43:44;98794.36;;;9.34;83.10
41467;BME280;72625;53.700;19.958;2024-03-25T08:48:46;98797.63;;;9.71;83.76
41467;BME280;72625;53.700;19.958;2024-03-25T08:53:48;98796.88;;;10.16;83.44
41467;BME280;72625;53.700;19.958;2024-03-25T08:58:51;98800.63;;;10.60;83.88
41467;BME280;72625;53.700;19.958;2024-03-25T09:03:56;98803.29;;;10.86;83.60
41467;BME280;72625;53.700;19.958;2024-03-25T09:08:58;98805.80;;;10.89;82.20
41467;BME280;72625;53.700;19.958;2024-03-25T09:14:19;98807.96;;;10.94;80.77
41467;BME280;72625;53.700;19.958;2024-03-25T09:19:21;98809.38;;;10.74;81.16
41467;BME280;72625;53.700;19.958;2024-03-25T09:24:24;98814.47;;;10.69;80.60
41467;BME280;72625;53.700;19.958;2024-03-25T09:29:26;98817.92;;;10.65;80.23
41467;BME280;72625;53.700;19.958;2024-03-25T09:34:28;98821.98;;;10.49;80.36
41467;BME280;72625;53.700;19.958;2024-03-25T09:39:30;98826.52;;;10.82;82.36
41467;BME280;72625;53.700;19.958;2024-03-25T09:44:34;98828.67;;;11.19;82.99
41467;BME280;72625;53.700;19.958;2024-03-25T09:49:36;98831.44;;;11.45;82.96
41467;BME280;72625;53.700;19.958;2024-03-25T09:54:38;98836.44;;;11.59;82.03
41467;BME280;72625;53.700;19.958;2024-03-25T09:59:44;98839.21;;;11.59;79.46
41467;BME280;72625;53.700;19.958;2024-03-25T10:04:48;98841.45;;;11.82;80.26
41467;BME280;72625;53.700;19.958;2024-03-25T10:09:51;98843.14;;;11.93;80.43
41467;BME280;72625;53.700;19.958;2024-03-25T10:14:53;98841.60;;;12.10;80.93
41467;BME280;72625;53.700;19.958;2024-03-25T10:19:55;98844.57;;;12.23;78.17
41467;BME280;72625;53.700;19.958;2024-03-25T10:24:57;98846.79;;;12.23;78.45
41467;BME280;72625;53.700;19.958;2024-03-25T10:30:00;98843.05;;;12.50;79.96
41467;BME280;72625;53.700;19.958;2024-03-25T10:35:04;98849.56;;;12.47;72.57
41467;BME280;72625;53.700;19.958;2024-03-25T10:40:07;98856.64;;;12.29;70.40
41467;BME280;72625;53.700;19.958;2024-03-25T10:45:13;98853.06;;;12.34;71.30
41467;BME280;72625;53.700;19.958;2024-03-25T10:50:16;98854.27;;;12.34;69.72
41467;BME280;72625;53.700;19.958;2024-03-25T10:55:21;98863.77;;;12.45;73.30
41467;BME280;72625;53.700;19.958;2024-03-25T11:00:24;98860.44;;;12.50;70.46
41467;BME280;72625;53.700;19.958;2024-03-25T11:05:26;98865.97;;;12.49;71.97
41467;BME280;72625;53.700;19.958;2024-03-25T11:10:29;98867.27;;;12.62;71.32
41467;BME280;72625;53.700;19.958;2024-03-25T11:15:40;98871.70;;;12.32;69.54
41467;BME280;72625;53.700;19.958;2024-03-25T11:20:45;98867.88;;;12.47;71.48
41467;BME280;72625;53.700;19.958;2024-03-25T11:25:54;98869.20;;;12.46;68.73
41467;BME280;72625;53.700;19.958;2024-03-25T11:30:57;98861.31;;;12.46;67.88
41467;BME280;72625;53.700;19.958;2024-03-25T11:35:58;98859.63;;;12.55;67.79
41467;BME280;72625;53.700;19.958;2024-03-25T11:41:02;98851.50;;;12.80;68.16
41467;BME280;72625;53.700;19.958;2024-03-25T11:46:04;98850.61;;;12.89;66.95
41467;BME280;72625;53.700;19.958;2024-03-25T11:51:12;98850.82;;;13.29;70.30
41467;BME280;72625;53.700;19.958;2024-03-25T11:56:14;98850.75;;;13.90;71.60
41467;BME280;72625;53.700;19.958;2024-03-25T12:01:16;98846.38;;;13.50;65.82
41467;BME280;72625;53.700;19.958;2024-03-25T12:06:18;98851.16;;;13.39;70.63
41467;BME280;72625;53.700;19.958;2024-03-25T12:11:20;98854.20;;;13.42;70.59
41467;BME280;72625;53.700;19.958;2024-03-25T12:16:23;98859.41;;;13.36;72.10
41467;BME280;72625;53.700;19.958;2024-03-25T12:21:26;98865.08;;;13.32;72.06
41467;BME280;72625;53.700;19.958;2024-03-25T12:26:30;98869.10;;;13.33;72.33
41467;BME280;72625;53.700;19.958;2024-03-25T12:31:33;98865.92;;;13.47;72.35
41467;BME280;72625;53.700;19.958;2024-03-25T12:36:36;98870.02;;;13.50;72.36
41467;BME280;72625;53.700;19.958;2024-03-25T12:41:38;98866.89;;;13.39;70.49
41467;BME280;72625;53.700;19.958;2024-03-25T12:46:40;98866.02;;;13.53;70.62
41467;BME280;72625;53.700;19.958;2024-03-25T12:51:42;98864.92;;;13.75;69.88
41467;BME280;72625;53.700;19.958;2024-03-25T12:56:44;98870.01;;;13.81;69.94
41467;BME280;72625;53.700;19.958;2024-03-25T13:01:46;98869.02;;;13.54;67.90
41467;BME280;72625;53.700;19.958;2024-03-25T13:06:48;98875.95;;;13.38;70.59
41467;BME280;72625;53.700;19.958;2024-03-25T13:11:50;98875.23;;;13.34;70.15
41467;BME280;72625;53.700;19.958;2024-03-25T13:16:52;98872.58;;;13.25;69.88
41467;BME280;72625;53.700;19.958;2024-03-25T13:21:58;98872.59;;;13.15;70.15
41467;BME280;72625;53.700;19.958;2024-03-25T13:27:00;98880.11;;;13.08;68.63
41467;BME280;72625;53.700;19.958;2024-03-25T13:32:02;98877.73;;;13.18;70.71
41467;BME280;72625;53.700;19.958;2024-03-25T13:37:07;98871.73;;;13.36;70.76
41467;BME280;72625;53.700;19.958;2024-03-25T13:42:09;98874.34;;;13.23;70.60
41467;BME280;72625;53.700;19.958;2024-03-25T13:47:11;98874.08;;;12.90;66.99
41467;BME280;72625;53.700;19.958;2024-03-25T13:52:13;98876.60;;;12.74;68.31
41467;BME280;72625;53.700;19.958;2024-03-25T13:57:15;98873.89;;;12.97;69.47
41467;BME280;72625;53.700;19.958;2024-03-25T14:02:17;98878.14;;;13.03;66.32
41467;BME280;72625;53.700;19.958;2024-03-25T14:07:20;98880.66;;;12.91;66.73
41467;BME280;72625;53.700;19.958;2024-03-25T14:12:22;98886.60;;;13.00;67.90
41467;BME280;72625;53.700;19.958;2024-03-25T14:17:25;98890.05;;;12.63;64.53
41467;BME280;72625;53.700;19.958;2024-03-25T14:22:27;98893.86;;;12.23;64.52
41467;BME280;72625;53.700;19.958;2024-03-25T14:27:29;98897.15;;;12.09;66.00
41467;BME280;72625;53.700;19.958;2024-03-25T14:32:31;98896.10;;;12.30;67.07
41467;BME280;72625;53.700;19.958;2024-03-25T14:37:33;98891.70;;;12.22;65.95
41467;BME280;72625;53.700;19.958;2024-03-25T14:42:35;98889.86;;;12.17;65.61
41467;BME280;72625;53.700;19.958;2024-03-25T14:47:38;98892.98;;;12.13;65.22
41467;BME280;72625;53.700;19.958;2024-03-25T14:52:40;98893.81;;;11.93;63.63
41467;BME280;72625;53.700;19.958;2024-03-25T15:40:47;98914.59;;;11.76;65.03
41467;BME280;72625;53.700;19.958;2024-03-25T15:45:58;98912.77;;;11.28;65.03
41467;BME280;72625;53.700;19.958;2024-03-25T15:51:04;98911.27;;;11.02;66.19
41467;BME280;72625;53.700;19.958;2024-03-25T15:56:08;98917.42;;;10.87;65.88
41467;BME280;72625;53.700;19.958;2024-03-25T16:01:11;98925.02;;;10.69;65.98
41467;BME280;72625;53.700;19.958;2024-03-25T16:06:14;98929.40;;;10.54;65.91
41467;BME280;72625;53.700;19.958;2024-03-25T16:11:18;98937.70;;;10.41;66.18
41467;BME280;72625;53.700;19.958;2024-03-25T16:16:23;98934.83;;;10.30;66.77
41467;BME280;72625;53.700;19.958;2024-03-25T16:21:27;98942.05;;;10.32;67.18
41467;BME280;72625;53.700;19.958;2024-03-25T16:26:30;98945.73;;;10.28;67.23
41467;BME280;72625;53.700;19.958;2024-03-25T16:31:33;98952.62;;;10.24;67.36
41467;BME280;72625;53.700;19.958;2024-03-25T16:36:36;98955.27;;;10.11;67.54
41467;BME280;72625;53.700;19.958;2024-03-25T16:41:39;98961.19;;;9.95;67.68
41467;BME280;72625;53.700;19.958;2024-03-25T16:46:42;98962.27;;;9.75;67.91
41467;BME280;72625;53.700;19.958;2024-03-25T16:51:45;98972.73;;;9.55;68.07
41467;BME280;72625;53.700;19.958;2024-03-25T16:56:48;98981.36;;;9.28;68.45
41467;BME280;72625;53.700;19.958;2024-03-25T17:01:52;98982.35;;;9.05;68.95
41467;BME280;72625;53.700;19.958;2024-03-25T17:06:58;98985.00;;;8.89;69.11
41467;BME280;72625;53.700;19.958;2024-03-25T17:12:01;98988.44;;;8.72;69.18
41467;BME280;72625;53.700;19.958;2024-03-25T17:17:04;98997.94;;;8.59;69.66
41467;BME280;72625;53.700;19.958;2024-03-25T17:22:07;99009.38;;;8.50;69.83
41467;BME280;72625;53.700;19.958;2024-03-25T17:27:10;99014.27;;;8.37;70.33
41467;BME280;72625;53.700;19.958;2024-03-25T17:32:13;99023.23;;;8.21;70.06
41467;BME280;72625;53.700;19.958;2024-03-25T17:37:16;99022.77;;;8.13;70.26
41467;BME280;72625;53.700;19.958;2024-03-25T17:42:19;99025.11;;;8.06;70.53
41467;BME280;72625;53.700;19.958;2024-03-25T17:47:22;99025.66;;;7.98;70.60
41467;BME280;72625;53.700;19.958;2024-03-25T17:52:26;99035.52;;;7.97;70.36
41467;BME280;72625;53.700;19.958;2024-03-25T17:57:29;99044.13;;;7.97;70.87
41467;BME280;72625;53.700;19.958;2024-03-25T18:02:32;99052.79;;;7.99;70.63
41467;BME280;72625;53.700;19.958;2024-03-25T18:07:36;99056.48;;;7.90;70.93
41467;BME280;72625;53.700;19.958;2024-03-25T18:12:40;99062.11;;;7.87;71.63
41467;BME280;72625;53.700;19.958;2024-03-25T18:17:43;99063.81;;;7.81;71.91
41467;BME280;72625;53.700;19.958;2024-03-25T18:22:46;99066.83;;;7.77;72.28
41467;BME280;72625;53.700;19.958;2024-03-25T18:27:49;99067.75;;;7.74;72.18
41467;BME280;72625;53.700;19.958;2024-03-25T18:32:52;99066.72;;;7.72;72.38
41467;BME280;72625;53.700;19.958;2024-03-25T18:37:55;99065.33;;;7.70;72.33
41467;BME280;72625;53.700;19.958;2024-03-25T18:42:58;99068.72;;;7.64;72.50
41467;BME280;72625;53.700;19.958;2024-03-25T18:48:01;99077.06;;;7.57;72.42
41467;BME280;72625;53.700;19.958;2024-03-25T18:53:05;99080.01;;;7.54;72.21
41467;BME280;72625;53.700;19.958;2024-03-25T18:58:07;99084.77;;;7.50;72.88
41467;BME280;72625;53.700;19.958;2024-03-25T19:03:12;99089.45;;;7.52;72.92
41467;BME280;72625;53.700;19.958;2024-03-25T19:08:15;99088.66;;;7.57;73.11
41467;BME280;72625;53.700;19.958;2024-03-25T19:13:18;99096.31;;;7.54;73.30
41467;BME280;72625;53.700;19.958;2024-03-25T19:18:21;99097.33;;;7.52;73.34
41467;BME280;72625;53.700;19.958;2024-03-25T19:23:24;99101.58;;;7.49;73.58
41467;BME280;72625;53.700;19.958;2024-03-25T19:28:27;99103.78;;;7.43;73.40
41467;BME280;72625;53.700;19.958;2024-03-25T19:33:30;99111.73;;;7.34;73.54
41467;BME280;72625;53.700;19.958;2024-03-25T19:38:33;99115.00;;;7.27;73.82
41467;BME280;72625;53.700;19.958;2024-03-25T19:43:37;99119.52;;;7.33;73.73
41467;BME280;72625;53.700;19.958;2024-03-25T19:48:41;99124.52;;;7.27;74.04
41467;BME280;72625;53.700;19.958;2024-03-25T19:53:44;99125.48;;;7.19;74.28
41467;BME280;72625;53.700;19.958;2024-03-25T19:58:46;99129.86;;;7.18;74.33
41467;BME280;72625;53.700;19.958;2024-03-25T20:03:50;99124.67;;;7.20;74.53
41467;BME280;72625;53.700;19.958;2024-03-25T20:08:54;99124.39;;;7.24;74.62
41467;BME280;72625;53.700;19.958;2024-03-25T20:13:57;99124.27;;;7.25;74.94
41467;BME280;72625;53.700;19.958;2024-03-25T20:19:00;99120.92;;;7.31;74.68
41467;BME280;72625;53.700;19.958;2024-03-25T20:24:03;99127.27;;;7.35;74.91
41467;BME280;72625;53.700;19.958;2024-03-25T20:29:07;99129.52;;;7.32;75.06
41467;BME280;72625;53.700;19.958;2024-03-25T20:34:10;99138.58;;;7.28;75.04
41467;BME280;72625;53.700;19.958;2024-03-25T20:39:12;99140.39;;;7.31;75.48
41467;BME280;72625;53.700;19.958;2024-03-25T20:44:16;99150.45;;;7.33;75.28
41467;BME280;72625;53.700;19.958;2024-03-25T20:49:19;99152.77;;;7.32;75.30
41467;BME280;72625;53.700;19.958;2024-03-25T20:54:22;99157.54;;;7.34;75.16
41467;BME280;72625;53.700;19.958;2024-03-25T20:59:30;99156.73;;;7.31;75.29
41467;BME280;72625;53.700;19.958;2024-03-25T21:04:41;99156.95;;;7.23;75.43
41467;BME280;72625;53.700;19.958;2024-03-25T21:09:44;99161.05;;;7.12;75.29
41467;BME280;72625;53.700;19.958;2024-03-25T21:14:47;99164.10;;;7.02;75.22
41467;BME280;72625;53.700;19.958;2024-03-25T21:19:50;99161.31;;;6.90;75.65
41467;BME280;72625;53.700;19.958;2024-03-25T21:24:54;99163.20;;;6.78;75.95
41467;BME280;72625;53.700;19.958;2024-03-25T21:29:57;99165.42;;;6.67;75.88
41467;BME280;72625;53.700;19.958;2024-03-25T21:35:00;99171.94;;;6.56;76.11
41467;BME280;72625;53.700;19.958;2024-03-25T21:40:03;99172.42;;;6.60;76.20
41467;BME280;72625;53.700;19.958;2024-03-25T21:45:08;99172.33;;;6.65;76.22
41467;BME280;72625;53.700;19.958;2024-03-25T21:50:11;99173.98;;;6.69;76.58
41467;BME280;72625;53.700;19.958;2024-03-25T21:55:14;99181.40;;;6.70;76.56
41467;BME280;72625;53.700;19.958;2024-03-25T22:00:17;99187.61;;;6.70;76.52
41467;BME280;72625;53.700;19.958;2024-03-25T22:05:20;99188.02;;;6.65;76.49
41467;BME280;72625;53.700;19.958;2024-03-25T22:10:24;99193.69;;;6.61;76.73
41467;BME280;72625;53.700;19.958;2024-03-25T22:15:33;99194.02;;;6.49;76.71
41467;BME280;72625;53.700;19.958;2024-03-25T22:20:39;99195.55;;;6.38;76.81
41467;BME280;72625;53.700;19.958;2024-03-25T22:25:41;99194.11;;;6.30;77.05
41467;BME280;72625;53.700;19.958;2024-03-25T22:30:44;99193.71;;;6.17;77.29
41467;BME280;72625;53.700;19.958;2024-03-25T22:35:58;99191.16;;;6.05;77.24
41467;BME280;72625;53.700;19.958;2024-03-25T22:41:02;99193.04;;;6.06;77.60
41467;BME280;72625;53.700;19.958;2024-03-25T22:46:05;99201.18;;;6.02;77.64
41467;BME280;72625;53.700;19.958;2024-03-25T22:51:08;99206.20;;;5.95;77.88
41467;BME280;72625;53.700;19.958;2024-03-25T22:56:11;99205.90;;;5.89;78.02
41467;BME280;72625;53.700;19.958;2024-03-25T23:01:15;99204.01;;;5.77;78.18
41467;BME280;72625;53.700;19.958;2024-03-25T23:06:18;99212.62;;;5.67;78.50
41467;BME280;72625;53.700;19.958;2024-03-25T23:11:21;99218.89;;;5.55;78.74
41467;BME280;72625;53.700;19.958;2024-03-25T23:16:24;99223.22;;;5.51;78.51
41467;BME280;72625;53.700;19.958;2024-03-25T23:21:32;99222.58;;;5.47;78.95
41467;BME280;72625;53.700;19.958;2024-03-25T23:26:35;99223.56;;;5.37;79.19
41467;BME280;72625;53.700;19.958;2024-03-25T23:31:38;99215.01;;;5.38;78.76
41467;BME280;72625;53.700;19.958;2024-03-25T23:36:41;99218.59;;;5.38;78.97
41467;BME280;72625;53.700;19.958;2024-03-25T23:41:43;99224.63;;;5.30;79.13
41467;BME280;72625;53.700;19.958;2024-03-25T23:46:46;99224.73;;;5.20;78.88
41467;BME280;72625;53.700;19.958;2024-03-25T23:51:49;99227.23;;;5.08;79.31
41467;BME280;72625;53.700;19.958;2024-03-25T23:56:52;99225.27;;;4.92;79.28
